Alexandria, OH

3:36 PM EDT on April 19, 2015 (GMT -0400)
Granville South | | Change Station
CLOSE
Current Station
Personal Weather Station
Location: Granville, OH
Elevation: 1060 ft
Nearby Weather Stations

Elev 1060 ft 40.05 °N, 82.57 °W | Updated 1 minute ago

Mostly Cloudy
Mostly Cloudy
61.6 °F
Feels Like 61.6 °F
N
1.0
Wind Variable Wind from East
Gusts 5.0 mph

Today
High -- | Low -- °F
--% Chance of Precip.
Yesterday
High -- | Low -- °F
Precip. -- in
6:46 AM 8:12 PM
New Moon, 2% visible
Pressure 29.77 in
Visibility 7.0 miles
Clouds Scattered Clouds 6500 ft
Overcast 8000 ft
Dew Point 54 °F
Humidity 77%
Rainfall 0.05 in
Snow Depth Not available.
UV 3 out of 12
Pollen 5.70 out of 12
Air Quality Not available.
Flu Activity Regional
METAR KVTA 191854Z AUTO 13017G26KT 7SM -RA SCT065 OVC080 19/11 A2977 RMK AO2 PK WND 13026/1854 RAB04 SLP079 P0001 T01890111

More Conditions Fewer Conditions

Pressure 29.77 in
Visibility 7.0 miles
Clouds Scattered Clouds 6500 ft
Overcast 8000 ft
Dew Point 54 °F
Humidity 77%
Rainfall 0.05 in
Snow Depth Not available.
UV 3 out of 12
Pollen 5.70 out of 12
Air Quality Not available.
Flu Activity Regional
METAR KVTA 191854Z AUTO 13017G26KT 7SM -RA SCT065 OVC080 19/11 A2977 RMK AO2 PK WND 13026/1854 RAB04 SLP079 P0001 T01890111

More Conditions Fewer Conditions

10-Day Weather Forecast

Almanac

Astronomy

Apr. 19, 2015 Rise Set
Actual Time
Civil Twilight
Nautical Twilight
Astronomical Twilight
Moon
Length of Visible Light
Length of Day
Tomorrow will be .
, % of the Moon is Illuminated

Today's Extremes

State Highs State Lows

Community

WunderPhotos

Upload Photos

1,814,944 photos uploaded!

WunderBlogs® & News

Nearby

Air Quality

  Air Quality AQ Index Pollutant
Not available.

Snow Depth

Station Depth Elevation

Earthquake Activity

City Distance Mag. Time & Date
Minimum magnitude displayed is 2.5.

Coastal Water Temperatures

Place Temperature

Stations

Nearby Weather Stations

Station Location Temp. Windchill Dew Point Humidity Wind Precip. Elev Updated Type